createdAt,value
2022-12-18T00:01:32.736Z,100104.34
2022-12-18T00:04:05.833Z,100100.13
2022-12-18T00:06:34.859Z,100102.44
2022-12-18T00:09:04.006Z,100105.06
2022-12-18T00:11:33.051Z,100100.69
2022-12-18T00:14:01.984Z,100099.28
2022-12-18T00:16:32.001Z,100106.47
2022-12-18T00:19:01.142Z,100120.66
2022-12-18T00:21:30.706Z,100120.13
2022-12-18T00:24:00.174Z,100122.88
2022-12-18T00:26:31.698Z,100120.38
2022-12-18T00:29:11.398Z,100114.75
2022-12-18T00:31:39.440Z,100124.06
2022-12-18T00:34:07.567Z,100122.50
2022-12-18T00:36:36.283Z,100122.75
2022-12-18T00:39:06.615Z,100126.31
2022-12-18T00:41:53.179Z,100126.69
2022-12-18T00:44:21.039Z,100132.78
2022-12-18T00:46:49.584Z,100127.53
2022-12-18T00:49:20.261Z,100140.97
2022-12-18T00:51:49.138Z,100142.97
2022-12-18T00:54:18.836Z,100149.25
2022-12-18T00:56:49.325Z,100157.47
2022-12-18T00:59:19.404Z,100157.56
2022-12-18T01:01:48.377Z,100164.84
2022-12-18T01:04:16.412Z,100174.78
2022-12-18T01:06:46.825Z,100172.69
2022-12-18T01:09:14.949Z,100176.25
2022-12-18T01:11:42.627Z,100185.63
2022-12-18T01:14:12.128Z,100177.63
2022-12-18T01:16:39.870Z,100188.75
2022-12-18T01:19:07.771Z,100178.25
2022-12-18T01:21:35.383Z,100178.53
2022-12-18T01:24:06.408Z,100170.97
2022-12-18T01:26:34.753Z,100180.09
2022-12-18T01:29:02.483Z,100172.69
2022-12-18T01:31:33.919Z,100177.25
2022-12-18T01:34:06.102Z,100177.53
2022-12-18T01:36:39.993Z,100179.94
2022-12-18T01:39:14.546Z,100179.19
2022-12-18T01:42:02.302Z,100179.47
2022-12-18T01:44:57.785Z,100180.97
2022-12-18T01:47:37.521Z,100188.03
2022-12-18T01:50:18.263Z,100182.31
2022-12-18T01:52:54.694Z,100190.41
2022-12-18T01:55:27.383Z,100195.41
2022-12-18T01:57:59.775Z,100192.47
2022-12-18T02:00:29.060Z,100195.41
2022-12-18T02:02:56.819Z,100195.06
2022-12-18T02:05:59.911Z,100202.03
2022-12-18T02:09:08.067Z,100201.38
2022-12-18T02:11:41.115Z,100207.63
2022-12-18T02:14:29.669Z,100215.03
2022-12-18T02:17:12.661Z,100209.38
2022-12-18T02:20:05.614Z,100212.22
2022-12-18T02:23:10.257Z,100215.63
2022-12-18T02:26:20.966Z,100219.94
2022-12-18T02:29:00.015Z,100220.16
2022-12-18T02:31:37.859Z,100216.34
2022-12-18T02:34:09.386Z,100208.28
2022-12-18T02:36:44.702Z,100222.53
2022-12-18T02:39:15.891Z,100211.53
2022-12-18T02:41:56.383Z,100215.63
2022-12-18T02:44:25.681Z,100212.38
2022-12-18T02:46:55.434Z,100219.84
2022-12-18T02:49:55.183Z,100222.38
2022-12-18T02:52:41.737Z,100218.28
2022-12-18T02:56:08.143Z,100226.94
2022-12-18T02:59:03.326Z,100223.34
2022-12-18T03:02:20.566Z,100237.16
2022-12-18T03:05:13.372Z,100228.13
2022-12-18T03:08:02.143Z,100225.00
2022-12-18T03:10:39.930Z,100236.00
2022-12-18T03:13:15.015Z,100241.75
2022-12-18T03:15:52.941Z,100249.47
2022-12-18T03:18:26.899Z,100247.72
2022-12-18T03:20:59.694Z,100258.72
2022-12-18T03:23:36.136Z,100253.38
2022-12-18T03:26:11.575Z,100258.97
2022-12-18T03:28:51.662Z,100261.22
2022-12-18T03:31:24.681Z,100264.81
2022-12-18T03:33:59.931Z,100257.16
2022-12-18T03:36:36.300Z,100269.13
2022-12-18T03:39:04.425Z,100258.97
2022-12-18T03:41:52.094Z,100263.88
2022-12-18T03:45:14.851Z,100262.31
2022-12-18T03:48:17.213Z,100255.31
2022-12-18T03:50:57.369Z,100267.47
2022-12-18T03:53:37.841Z,100268.94
2022-12-18T03:56:09.088Z,100268.28
2022-12-18T03:58:43.493Z,100273.53
2022-12-18T04:01:33.551Z,100275.94
2022-12-18T04:04:05.638Z,100280.94
2022-12-18T04:06:38.253Z,100278.25
2022-12-18T04:09:06.574Z,100279.41
2022-12-18T04:11:38.999Z,100277.09
2022-12-18T04:14:07.752Z,100277.69
2022-12-18T04:16:35.821Z,100287.41
2022-12-18T04:19:06.187Z,100288.56
2022-12-18T04:21:40.058Z,100292.13
2022-12-18T04:24:08.196Z,100283.56
2022-12-18T04:26:38.069Z,100292.56
2022-12-18T04:29:16.344Z,100298.88
2022-12-18T04:31:44.028Z,100298.44
2022-12-18T04:34:12.479Z,100300.53
2022-12-18T04:36:46.462Z,100303.53
2022-12-18T04:39:18.480Z,100311.81
2022-12-18T04:41:46.967Z,100317.00
2022-12-18T04:44:15.598Z,100326.06
2022-12-18T04:46:43.972Z,100330.63
2022-12-18T04:49:11.930Z,100334.38
2022-12-18T04:51:40.058Z,100342.25
2022-12-18T04:54:07.851Z,100333.03
2022-12-18T04:56:35.413Z,100343.75
2022-12-18T04:59:02.977Z,100346.19
2022-12-18T05:01:34.497Z,100350.56
2022-12-18T05:04:03.620Z,100348.41
2022-12-18T05:06:31.278Z,100347.59
2022-12-18T05:08:59.037Z,100353.91
2022-12-18T05:11:26.529Z,100349.81
2022-12-18T05:13:54.079Z,100350.66
2022-12-18T05:16:21.717Z,100342.75
2022-12-18T05:18:49.308Z,100346.25
2022-12-18T05:21:16.935Z,100344.75
2022-12-18T05:23:45.034Z,100356.06
2022-12-18T05:26:18.779Z,100362.19
2022-12-18T05:28:47.128Z,100364.88
2022-12-18T05:31:15.625Z,100373.75
2022-12-18T05:33:43.838Z,100379.50
2022-12-18T05:36:12.504Z,100380.56
2022-12-18T05:38:40.813Z,100386.81
2022-12-18T05:41:09.851Z,100395.72
2022-12-18T05:43:40.700Z,100403.75
2022-12-18T05:46:18.644Z,100390.00
2022-12-18T05:48:46.854Z,100397.41
2022-12-18T05:51:18.653Z,100394.00
2022-12-18T05:53:46.523Z,100408.13
2022-12-18T05:56:18.518Z,100408.84
2022-12-18T05:58:47.249Z,100402.81
2022-12-18T06:01:20.262Z,100409.44
2022-12-18T06:03:48.034Z,100414.59
2022-12-18T06:06:23.465Z,100417.16
2022-12-18T06:08:53.772Z,100424.03
2022-12-18T06:11:27.245Z,100425.47
2022-12-18T06:13:59.181Z,100421.88
2022-12-18T06:16:28.626Z,100430.91
2022-12-18T06:19:05.415Z,100427.41
2022-12-18T06:21:33.765Z,100436.69
2022-12-18T06:24:01.520Z,100436.56
2022-12-18T06:26:29.032Z,100447.59
2022-12-18T06:28:56.936Z,100441.03
2022-12-18T06:31:25.739Z,100453.50
2022-12-18T06:33:53.365Z,100459.56
2022-12-18T06:36:21.946Z,100459.72
2022-12-18T06:38:49.955Z,100459.63
2022-12-18T06:41:21.467Z,100473.94
2022-12-18T06:43:48.998Z,100478.84
2022-12-18T06:46:17.006Z,100480.97
2022-12-18T06:48:49.865Z,100486.13
2022-12-18T06:51:23.487Z,100481.03
2022-12-18T06:53:51.317Z,100491.09
2022-12-18T06:56:18.928Z,100490.78
2022-12-18T06:58:46.588Z,100492.22
2022-12-18T07:01:15.238Z,100493.34
2022-12-18T07:03:43.975Z,100492.97
2022-12-18T07:06:21.271Z,100504.41
2022-12-18T07:08:50.842Z,100501.44
2022-12-18T07:11:19.593Z,100502.09
2022-12-18T07:13:47.650Z,100503.72
2022-12-18T07:16:25.232Z,100506.53
2022-12-18T07:18:56.827Z,100522.16
2022-12-18T07:21:26.179Z,100520.44
2022-12-18T07:23:54.069Z,100516.72
2022-12-18T07:26:23.152Z,100527.84
2022-12-18T07:28:51.824Z,100531.13
2022-12-18T07:31:22.252Z,100534.06
2022-12-18T07:33:51.289Z,100533.09
2022-12-18T07:36:19.914Z,100521.31
2022-12-18T07:38:49.025Z,100546.56
2022-12-18T07:41:17.354Z,100545.28
2022-12-18T07:43:45.432Z,100542.56
2022-12-18T07:46:17.777Z,100543.81
2022-12-18T07:48:49.455Z,100552.13
2022-12-18T07:51:19.550Z,100549.38
2022-12-18T07:53:52.226Z,100549.34
2022-12-18T07:56:30.405Z,100550.88
2022-12-18T07:59:00.646Z,100560.34
2022-12-18T08:01:28.731Z,100568.66
2022-12-18T08:03:56.541Z,100563.69
2022-12-18T08:06:24.835Z,100569.97
2022-12-18T08:08:54.871Z,100568.66
2022-12-18T08:11:24.574Z,100560.84
2022-12-18T08:13:52.388Z,100564.91
2022-12-18T08:16:21.362Z,100568.66
2022-12-18T08:18:49.749Z,100563.75
2022-12-18T08:21:25.478Z,100574.22
2022-12-18T08:23:56.346Z,100582.22
2022-12-18T08:26:25.691Z,100577.91
2022-12-18T08:28:56.905Z,100585.13
2022-12-18T08:31:26.749Z,100589.91
2022-12-18T08:33:55.426Z,100581.34
2022-12-18T08:36:24.933Z,100584.75
2022-12-18T08:38:53.365Z,100593.25
2022-12-18T08:41:21.750Z,100594.00
2022-12-18T08:44:07.590Z,100592.41
2022-12-18T08:46:42.038Z,100594.09
2022-12-18T08:49:11.056Z,100581.59
2022-12-18T08:51:39.187Z,100586.38
2022-12-18T08:54:07.494Z,100596.50
2022-12-18T08:56:35.923Z,100602.19
2022-12-18T08:59:03.969Z,100595.50
2022-12-18T09:01:31.722Z,100594.28
2022-12-18T09:03:59.725Z,100595.59
2022-12-18T09:06:27.603Z,100589.81
2022-12-18T09:08:55.295Z,100592.22
2022-12-18T09:11:26.576Z,100593.91
2022-12-18T09:13:55.802Z,100588.75
2022-12-18T09:16:31.733Z,100590.06
2022-12-18T09:19:00.948Z,100593.16
2022-12-18T09:21:31.401Z,100585.59
2022-12-18T09:24:00.945Z,100586.81
2022-12-18T09:26:29.056Z,100586.22
2022-12-18T09:28:56.958Z,100595.34
2022-12-18T09:31:25.849Z,100595.47
2022-12-18T09:33:53.492Z,100588.38
2022-12-18T09:36:21.068Z,100583.84
2022-12-18T09:38:49.508Z,100578.44
2022-12-18T09:41:38.783Z,100576.38
2022-12-18T09:44:15.423Z,100584.34
2022-12-18T09:47:10.991Z,100573.41
2022-12-18T09:49:48.401Z,100581.25
2022-12-18T09:52:26.387Z,100586.88
2022-12-18T09:55:05.888Z,100575.94
2022-12-18T09:57:38.252Z,100573.00
2022-12-18T10:00:21.927Z,100575.09
2022-12-18T10:03:10.676Z,100591.50
2022-12-18T10:06:02.533Z,100588.84
2022-12-18T10:08:54.559Z,100587.81
2022-12-18T10:11:40.945Z,100585.94
2022-12-18T10:14:19.198Z,100591.28
2022-12-18T10:17:31.360Z,100593.56
2022-12-18T10:20:11.315Z,100587.84
2022-12-18T10:22:53.297Z,100588.41
2022-12-18T10:25:33.925Z,100586.78
2022-12-18T10:28:22.743Z,100581.97
2022-12-18T10:30:50.473Z,100577.75
2022-12-18T10:33:22.456Z,100587.88
2022-12-18T10:35:52.807Z,100588.88
2022-12-18T10:38:27.733Z,100586.94
2022-12-18T10:40:58.357Z,100579.94
2022-12-18T10:43:34.344Z,100592.91
2022-12-18T10:46:18.003Z,100586.19
2022-12-18T10:48:55.400Z,100596.72
2022-12-18T10:51:34.518Z,100593.44
2022-12-18T10:54:15.247Z,100592.03
2022-12-18T10:56:44.283Z,100597.25
2022-12-18T10:59:16.016Z,100584.31
2022-12-18T11:01:56.820Z,100584.84
2022-12-18T11:04:28.644Z,100580.47
2022-12-18T11:06:57.649Z,100575.66
2022-12-18T11:09:33.213Z,100570.25
2022-12-18T11:12:16.018Z,100581.56
2022-12-18T11:14:54.029Z,100575.72
2022-12-18T11:17:35.769Z,100572.50
2022-12-18T11:20:20.111Z,100566.56
2022-12-18T11:22:59.622Z,100573.53
2022-12-18T11:25:33.305Z,100567.88
2022-12-18T11:28:29.119Z,100567.69
2022-12-18T11:31:18.402Z,100563.19
2022-12-18T11:34:26.752Z,100558.81
2022-12-18T11:36:46.498Z,100559.53
2022-12-18T11:39:39.615Z,100561.84
2022-12-18T11:42:21.094Z,100561.38
2022-12-18T11:45:21.914Z,100560.00
2022-12-18T11:48:06.691Z,100559.69
2022-12-18T11:50:37.435Z,100568.34
2022-12-18T11:53:06.444Z,100554.94
2022-12-18T11:56:02.758Z,100563.69
2022-12-18T11:59:08.368Z,100567.75
2022-12-18T12:01:45.040Z,100554.84
2022-12-18T12:04:48.570Z,100562.47
2022-12-18T12:07:28.235Z,100554.13
2022-12-18T12:10:14.433Z,100562.94
2022-12-18T12:13:12.876Z,100559.97
2022-12-18T12:16:16.395Z,100555.25
2022-12-18T12:18:53.573Z,100554.59
2022-12-18T12:21:42.178Z,100554.94
2022-12-18T12:24:36.945Z,100560.81
2022-12-18T12:27:14.983Z,100559.91
2022-12-18T12:30:15.250Z,100560.03
2022-12-18T12:33:17.310Z,100557.25
2022-12-18T12:35:53.660Z,100557.56
2022-12-18T12:38:38.228Z,100564.06
2022-12-18T12:41:30.522Z,100553.63
2022-12-18T12:44:04.000Z,100552.66
2022-12-18T12:46:39.156Z,100555.84
2022-12-18T12:49:18.403Z,100561.75
2022-12-18T12:52:04.433Z,100562.13
2022-12-18T12:54:34.518Z,100560.13
2022-12-18T12:57:38.594Z,100561.59
2022-12-18T13:00:07.321Z,100549.88
2022-12-18T13:02:49.342Z,100552.88
2022-12-18T13:05:35.095Z,100554.53
2022-12-18T13:08:12.951Z,100570.34
2022-12-18T13:10:42.562Z,100570.22
2022-12-18T13:13:20.428Z,100568.44
2022-12-18T13:16:09.220Z,100570.13
2022-12-18T13:18:37.195Z,100574.84
2022-12-18T13:21:34.398Z,100567.03
2022-12-18T13:24:31.220Z,100584.41
2022-12-18T13:26:59.056Z,100583.94
2022-12-18T13:29:45.045Z,100599.72
2022-12-18T13:32:25.706Z,100602.22
2022-12-18T13:35:27.373Z,100603.63
2022-12-18T13:37:56.399Z,100603.34
2022-12-18T13:40:48.632Z,100604.44
2022-12-18T13:43:18.887Z,100606.09
2022-12-18T13:45:50.969Z,100605.66
2022-12-18T13:48:23.184Z,100610.75
2022-12-18T13:50:59.825Z,100611.06
2022-12-18T13:53:51.800Z,100610.66
2022-12-18T13:56:30.157Z,100617.25
2022-12-18T13:59:25.924Z,100619.16
2022-12-18T14:01:53.791Z,100617.84
2022-12-18T14:04:30.779Z,100619.91
2022-12-18T14:07:08.495Z,100615.34
2022-12-18T14:09:42.091Z,100614.59
2022-12-18T14:12:48.654Z,100627.75
2022-12-18T14:15:32.473Z,100628.41
2022-12-18T14:18:16.465Z,100632.47
2022-12-18T14:20:52.926Z,100631.72
2022-12-18T14:23:38.386Z,100637.03
2022-12-18T14:26:31.404Z,100635.69
2022-12-18T14:29:20.519Z,100639.25
2022-12-18T14:32:25.565Z,100637.00
2022-12-18T14:34:56.307Z,100636.47
2022-12-18T14:37:28.579Z,100631.63
2022-12-18T14:40:11.403Z,100643.88
2022-12-18T14:42:39.305Z,100651.59
2022-12-18T14:45:47.573Z,100652.66
2022-12-18T14:48:34.489Z,100667.09
2022-12-18T14:51:22.698Z,100664.66
2022-12-18T14:54:09.223Z,100656.59
2022-12-18T14:56:45.851Z,100673.28
2022-12-18T14:59:23.991Z,100665.72
2022-12-18T15:01:54.856Z,100670.25
2022-12-18T15:04:36.800Z,100683.69
2022-12-18T15:07:10.728Z,100681.38
2022-12-18T15:09:41.346Z,100682.00
2022-12-18T15:12:44.890Z,100684.78
2022-12-18T15:15:34.134Z,100682.25
2022-12-18T15:18:13.264Z,100678.09
2022-12-18T15:21:20.079Z,100683.13
2022-12-18T15:23:53.354Z,100684.38
2022-12-18T15:26:22.837Z,100687.16
2022-12-18T15:28:59.545Z,100699.94
2022-12-18T15:31:38.801Z,100693.22
2022-12-18T15:34:09.094Z,100693.34
2022-12-18T15:36:38.241Z,100694.19
2022-12-18T15:39:07.072Z,100706.94
2022-12-18T15:41:37.148Z,100704.47
2022-12-18T15:44:25.172Z,100713.13
2022-12-18T15:46:52.797Z,100703.03
2022-12-18T15:49:20.484Z,100697.03
2022-12-18T15:51:54.719Z,100702.47
2022-12-18T15:54:42.839Z,100717.81
2022-12-18T15:57:26.444Z,100710.75
2022-12-18T15:59:59.195Z,100718.06
2022-12-18T16:02:28.763Z,100716.53
2022-12-18T16:04:57.036Z,100718.91
2022-12-18T16:07:28.108Z,100730.03
2022-12-18T16:09:58.839Z,100727.94
2022-12-18T16:12:28.061Z,100742.72
2022-12-18T16:14:55.574Z,100738.81
2022-12-18T16:17:23.157Z,100747.22
2022-12-18T16:19:50.678Z,100744.94
2022-12-18T16:22:30.268Z,100740.47
2022-12-18T16:24:58.698Z,100738.69
2022-12-18T16:27:26.759Z,100745.63
2022-12-18T16:29:54.420Z,100749.81
2022-12-18T16:32:23.589Z,100748.28
2022-12-18T16:34:52.212Z,100758.38
2022-12-18T16:37:20.008Z,100758.44
2022-12-18T16:39:50.645Z,100760.94
2022-12-18T16:42:21.107Z,100766.66
2022-12-18T16:44:50.398Z,100773.19
2022-12-18T16:47:19.092Z,100763.88
2022-12-18T16:49:47.259Z,100769.78
2022-12-18T16:52:14.925Z,100766.09
2022-12-18T16:54:42.475Z,100768.59
2022-12-18T16:57:14.137Z,100778.34
2022-12-18T16:59:41.880Z,100773.53
2022-12-18T17:02:26.707Z,100783.13
2022-12-18T17:04:58.148Z,100785.81
2022-12-18T17:07:28.166Z,100795.56
2022-12-18T17:09:56.684Z,100798.91
2022-12-18T17:12:25.002Z,100801.22
2022-12-18T17:14:52.693Z,100811.00
2022-12-18T17:17:22.276Z,100809.84
2022-12-18T17:19:52.466Z,100808.31
2022-12-18T17:22:23.183Z,100812.44
2022-12-18T17:24:50.738Z,100820.34
2022-12-18T17:27:18.388Z,100825.41
2022-12-18T17:29:48.372Z,100836.88
2022-12-18T17:32:18.114Z,100834.31
2022-12-18T17:34:46.584Z,100834.34
2022-12-18T17:37:14.542Z,100837.72
2022-12-18T17:39:42.302Z,100842.91
2022-12-18T17:42:15.175Z,100847.22
2022-12-18T17:44:44.464Z,100851.94
2022-12-18T17:47:14.401Z,100862.28
2022-12-18T17:49:42.084Z,100861.72
2022-12-18T17:52:10.373Z,100855.00
2022-12-18T17:54:41.437Z,100861.97
2022-12-18T17:57:09.084Z,100856.56
2022-12-18T17:59:36.773Z,100852.13
2022-12-18T18:02:04.569Z,100854.63
2022-12-18T18:04:32.339Z,100850.31
2022-12-18T18:06:59.823Z,100850.41
2022-12-18T18:09:27.577Z,100855.41
2022-12-18T18:12:13.686Z,100857.75
2022-12-18T18:14:41.360Z,100864.56
2022-12-18T18:17:08.942Z,100867.50
2022-12-18T18:19:36.556Z,100856.81
2022-12-18T18:22:04.219Z,100854.25
2022-12-18T18:24:33.718Z,100843.94
2022-12-18T18:27:01.763Z,100851.25
2022-12-18T18:29:30.595Z,100851.38
2022-12-18T18:31:59.199Z,100845.09
2022-12-18T18:34:30.951Z,100841.88
2022-12-18T18:36:59.200Z,100841.09
2022-12-18T18:39:27.620Z,100852.06
2022-12-18T18:41:55.659Z,100856.81
2022-12-18T18:44:26.374Z,100856.94
2022-12-18T18:46:58.681Z,100853.66
2022-12-18T18:49:28.393Z,100860.28
2022-12-18T18:51:58.030Z,100861.50
2022-12-18T18:54:27.266Z,100871.06
2022-12-18T18:59:43.623Z,100872.91
2022-12-18T19:02:15.214Z,100869.31
2022-12-18T19:04:43.127Z,100877.34
2022-12-18T19:07:24.047Z,100873.22
2022-12-18T19:10:04.057Z,100883.91
2022-12-18T19:12:52.998Z,100882.22
2022-12-18T19:15:22.714Z,100869.69
2022-12-18T19:17:50.705Z,100876.91
2022-12-18T19:20:18.900Z,100877.78
2022-12-18T19:22:47.934Z,100884.03
2022-12-18T19:25:40.197Z,100884.16
2022-12-18T19:28:15.834Z,100886.91
2022-12-18T19:30:56.058Z,100882.75
2022-12-18T19:33:43.101Z,100884.66
2022-12-18T19:36:19.557Z,100891.97
2022-12-18T19:38:49.893Z,100876.88
2022-12-18T19:41:21.497Z,100880.47
2022-12-18T19:43:50.304Z,100881.47
2022-12-18T19:46:20.938Z,100869.63
2022-12-18T19:48:49.997Z,100863.88
2022-12-18T19:51:25.708Z,100872.63
2022-12-18T19:53:58.764Z,100873.84
2022-12-18T19:56:32.443Z,100880.06
2022-12-18T19:59:00.756Z,100874.13
2022-12-18T20:01:30.347Z,100867.47
2022-12-18T20:03:59.750Z,100858.25
2022-12-18T20:06:47.262Z,100859.28
2022-12-18T20:09:15.286Z,100868.16
2022-12-18T20:11:43.134Z,100859.44
2022-12-18T20:14:13.129Z,100860.63
2022-12-18T20:16:41.888Z,100852.00
2022-12-18T20:19:12.509Z,100847.88
2022-12-18T20:21:40.443Z,100844.41
2022-12-18T20:24:08.785Z,100846.06
2022-12-18T20:26:36.783Z,100848.28
2022-12-18T20:29:04.565Z,100854.19
2022-12-18T20:31:32.538Z,100844.13
2022-12-18T20:34:02.796Z,100852.78
2022-12-18T20:36:34.078Z,100848.06
2022-12-18T20:39:05.497Z,100853.69
2022-12-18T20:41:38.277Z,100858.22
2022-12-18T20:44:22.715Z,100859.25
2022-12-18T20:46:59.176Z,100864.56
2022-12-18T20:49:28.517Z,100863.34
2022-12-18T20:51:58.161Z,100864.38
2022-12-18T20:54:27.763Z,100851.81
2022-12-18T20:56:56.962Z,100858.75
2022-12-18T20:59:25.723Z,100869.91
2022-12-18T21:01:54.022Z,100868.22
2022-12-18T21:04:22.469Z,100866.63
2022-12-18T21:06:55.671Z,100870.13
2022-12-18T21:09:28.251Z,100878.03
2022-12-18T21:12:42.592Z,100882.41
2022-12-18T21:15:11.789Z,100876.47
2022-12-18T21:17:44.764Z,100872.91
2022-12-18T21:20:17.773Z,100865.22
2022-12-18T21:22:49.170Z,100876.47
2022-12-18T21:25:16.864Z,100879.16
2022-12-18T21:27:44.439Z,100873.06
2022-12-18T21:30:13.599Z,100874.88
2022-12-18T21:32:41.419Z,100865.06
2022-12-18T21:35:09.493Z,100868.44
2022-12-18T21:37:37.228Z,100865.16
2022-12-18T21:40:06.401Z,100872.84
2022-12-18T21:42:52.949Z,100865.25
2022-12-18T21:45:20.509Z,100872.09
2022-12-18T21:47:48.145Z,100866.19
2022-12-18T21:50:15.975Z,100868.75
2022-12-18T21:52:43.496Z,100866.06
2022-12-18T21:55:11.162Z,100871.91
2022-12-18T21:57:39.433Z,100880.59
2022-12-18T22:00:12.503Z,100888.69
2022-12-18T22:03:00.503Z,100887.06
2022-12-18T22:05:36.560Z,100892.25
2022-12-18T22:08:04.472Z,100904.28
2022-12-18T22:10:32.420Z,100896.06
2022-12-18T22:12:59.974Z,100894.75
2022-12-18T22:15:27.653Z,100889.91
2022-12-18T22:18:00.335Z,100885.13
2022-12-18T22:20:29.976Z,100892.16
2022-12-18T22:22:58.856Z,100887.97
2022-12-18T22:25:28.658Z,100892.25
2022-12-18T22:28:15.098Z,100884.81
2022-12-18T22:30:43.765Z,100881.91
2022-12-18T22:33:11.401Z,100880.94
2022-12-18T22:35:39.128Z,100882.09
2022-12-18T22:38:06.757Z,100872.41
2022-12-18T22:40:34.312Z,100870.47
2022-12-18T22:43:01.837Z,100870.25
2022-12-18T22:45:29.440Z,100865.88
2022-12-18T22:47:57.322Z,100859.06
2022-12-18T22:50:24.833Z,100858.56
2022-12-18T22:52:52.467Z,100858.91
2022-12-18T22:55:20.493Z,100853.91
2022-12-18T22:57:49.155Z,100860.50
2022-12-18T23:00:24.330Z,100855.25
2022-12-18T23:03:00.316Z,100859.41
2022-12-18T23:05:30.639Z,100855.97
2022-12-18T23:07:58.708Z,100856.81
2022-12-18T23:10:27.277Z,100865.97
2022-12-18T23:12:54.835Z,100855.72
2022-12-18T23:15:27.731Z,100845.00
2022-12-18T23:17:59.925Z,100839.00
2022-12-18T23:20:28.383Z,100833.91
2022-12-18T23:22:55.967Z,100845.78
2022-12-18T23:25:25.092Z,100848.22
2022-12-18T23:27:52.829Z,100846.56
2022-12-18T23:30:20.407Z,100846.69
2022-12-18T23:32:48.399Z,100836.47
2022-12-18T23:35:17.238Z,100842.28
2022-12-18T23:37:59.168Z,100841.56
2022-12-18T23:40:29.453Z,100840.00
2022-12-18T23:42:57.263Z,100850.91
2022-12-18T23:45:24.868Z,100847.47
2022-12-18T23:47:52.398Z,100849.34
2022-12-18T23:50:23.615Z,100836.63
2022-12-18T23:53:02.150Z,100840.78
2022-12-18T23:55:39.741Z,100841.56
2022-12-18T23:58:20.253Z,100845.63
